Ama, LA

7:37 PM CST on November 25, 2014 (GMT -0600)
Willowridge Estates | Change Station
CLOSE
Current Station
Personal Weather Station
Location: Luling, LA
Elevation: 14 ft
Nearby Weather Stations

Elev 14 ft 29.89 °N, 90.34 °W | Updated 7 minutes ago

Overcast
Overcast
51.5 °F
Feels Like 51.5 °F
N
1.0
Wind Variable Wind from ESE
Gusts 9.0 mph

Today
High -- | Low -- °F
--% Chance of Precip.
Yesterday
High -- | Low -- °F
Precip. -- in
6:34 AM 5:01 PM
Waxing Crescent, 15% visible
Pressure 30.21 in
Visibility 10.0 miles
Clouds Mostly Cloudy 16000 ft
Dew Point 37 °F
Humidity 59%
Rainfall 0.00 in
Snow Depth Not available.
UV 0 out of 12
Pollen 3.20 out of 12
Air Quality Not available.
Flu Activity Not available.
METAR KMSY 260053Z 33011G18KT 10SM BKN160 11/00 A3020 RMK AO2 SLP230 T01110000

More Conditions Fewer Conditions

Pressure 30.21 in
Visibility 10.0 miles
Clouds Mostly Cloudy 16000 ft
Dew Point 37 °F
Humidity 59%
Rainfall 0.00 in
Snow Depth Not available.
UV 0 out of 12
Pollen 3.20 out of 12
Air Quality Not available.
Flu Activity Not available.
METAR KMSY 260053Z 33011G18KT 10SM BKN160 11/00 A3020 RMK AO2 SLP230 T01110000

More Conditions Fewer Conditions

10-Day Weather Forecast

Almanac

Astronomy

Nov. 25, 2014 Rise Set
Actual Time
Civil Twilight
Nautical Twilight
Astronomical Twilight
Moon
Length of Visible Light
Length of Day
Tomorrow will be .
, % of the Moon is Illuminated

Today's Extremes

State Highs State Lows

Community

WunderPhotos

Upload Photos

1,773,636 photos uploaded!

WunderBlogs® & News

Nearby

Air Quality

  Air Quality AQ Index Pollutant
Not available.

Snow Depth

Station Depth Elevation

Earthquake Activity

City Distance Mag. Time & Date
Minimum magnitude displayed is 2.5.

Coastal Water Temperatures

Place Temperature

Nearby Weather Stations